Terminal Aerodrome Forecast
Issued by NWS Boston, MA

Home | Current Version | Previous Version | Text Only | Print | Product List | Glossary On
Versions: 1 2 3 4 5 6 7 8 9 10 11 12 13 14 15 16 17 18 19 20 21 22 23 24 25 26 27 28
532
FTUS41 KBOX 122327
TAFORH
TAF
KORH 122327Z 1300/1324 21007KT P6SM OVC100
     FM130800 26005KT P6SM BKN080
     FM131300 29011KT P6SM BKN035
     FM131500 30018G31KT P6SM BKN035
     FM132000 30018G34KT P6SM SCT035
     FM132300 30017G37KT P6SM SCT250=

USA.gov is the U.S. government's official web portal to all federal, state and local government web resources and services.